Time;durP1;ratioP1;P1;durP2;ratioP2;P2;SDS_P1;SDS_P2;PMS_P1;PMS_P2;Temp;Humidity;BMP_temperature;BMP_pressure;BME280_temperature;BME280_humidity;BME280_pressure;Samples;Min_cycle;Max_cycle;Signal;HPM_P1;HPM_P2
2023/12/22 00:09:39;;;;;;;;;;;;;;;3.40;100.00;96037.55;435910;1254;125795;-64
2023/12/22 00:19:43;;;;;;;;;;;;;;;3.41;100.00;96036.45;435527;1254;125901;-65
2023/12/22 00:29:47;;;;;;;;;;;;;;;3.30;100.00;96039.10;435544;1254;126094;-65
2023/12/22 00:39:52;;;;;;;;;;;;;;;3.05;100.00;96031.34;435450;1251;126175;-65
2023/12/22 00:49:59;;;;;;;;;;;;;;;2.75;100.00;96032.95;435825;1254;126087;-64
2023/12/22 01:00:05;;;;;;;;;;;;;;;2.58;100.00;96041.23;436108;1250;125748;-64
2023/12/22 01:10:10;;;;;;;;;;;;;;;2.61;100.00;96060.41;435272;1254;126693;-64
2023/12/22 01:20:15;;;;;;;;;;;;;;;2.63;100.00;96068.92;435407;1253;126238;-65
2023/12/22 01:30:19;;;;;;;;;;;;;;;2.62;100.00;96070.20;435313;1251;126163;-65
2023/12/22 01:40:24;;;;;;;;;;;;;;;2.57;100.00;96067.73;435394;1254;126041;-65
2023/12/22 01:50:28;;;;;;;;;;;;;;;2.54;100.00;96068.86;435559;1251;126049;-64
2023/12/22 02:00:32;;;;;;;;;;;;;;;2.43;100.00;96070.52;435665;1254;125979;-64
2023/12/22 02:10:37;;;;;;;;;;;;;;;2.35;100.00;96072.71;435537;1256;125896;-64
2023/12/22 02:20:43;;;;;;;;;;;;;;;2.40;100.00;96064.29;435767;1256;126576;-64
2023/12/22 02:30:53;;;;;;;;;;;;;;;2.50;100.00;96068.61;435710;1253;125580;-64
2023/12/22 02:40:57;;;;;;;;;;;;;;;2.52;100.00;96058.60;436312;1254;126217;-63
2023/12/22 02:51:02;;;;;;;;;;;;;;;2.44;100.00;96050.15;436066;1253;125590;-64
2023/12/22 03:01:06;;;;;;;;;;;;;;;2.49;100.00;96050.98;436053;1254;125382;-65
2023/12/22 03:11:11;;;;;;;;;;;;;;;2.58;100.00;96069.35;437275;1254;126286;-64
2023/12/22 03:21:19;;;;;;;;;;;;;;;2.62;100.00;96074.55;436061;1254;125808;-65
2023/12/22 03:31:24;;;;;;;;;;;;;;;2.57;100.00;96062.38;435664;1255;126012;-65
2023/12/22 03:41:29;;;;;;;;;;;;;;;2.50;100.00;96060.73;435698;1252;125476;-65
2023/12/22 03:51:33;;;;;;;;;;;;;;;2.46;100.00;96056.42;435477;1253;126511;-65
2023/12/22 04:01:37;;;;;;;;;;;;;;;2.45;100.00;96054.63;437237;1250;126732;-64
2023/12/22 04:11:42;;;;;;;;;;;;;;;2.43;100.00;96046.48;435161;1251;126059;-65
2023/12/22 04:21:46;;;;;;;;;;;;;;;2.40;100.00;96054.13;435456;1250;126584;-65
2023/12/22 04:31:50;;;;;;;;;;;;;;;2.33;100.00;96048.59;435629;1251;125454;-64
2023/12/22 04:41:55;;;;;;;;;;;;;;;2.24;100.00;96048.80;435680;1250;125361;-64
2023/12/22 04:51:59;;;;;;;;;;;;;;;2.05;100.00;96042.29;435381;1254;126260;-64
2023/12/22 05:02:05;;;;;;;;;;;;;;;1.88;100.00;96048.05;436393;1254;125812;-65
2023/12/22 05:12:10;;;;;;;;;;;;;;;1.71;100.00;96067.42;435505;1254;125847;-64
2023/12/22 05:22:14;;;;;;;;;;;;;;;1.59;100.00;96080.11;435608;1250;126002;-65
2023/12/22 05:32:19;;;;;;;;;;;;;;;1.60;100.00;96082.48;435493;1254;125717;-65
2023/12/22 05:42:23;;;;;;;;;;;;;;;1.60;100.00;96084.41;435447;1254;125723;-65
2023/12/22 05:52:27;;;;;;;;;;;;;;;1.40;100.00;96075.35;435325;1251;125613;-65
2023/12/22 06:02:32;;;;;;;;;;;;;;;1.24;100.00;96091.92;435393;1251;126795;-64
2023/12/22 06:12:36;;;;;;;;;;;;;;;1.14;100.00;96096.42;435544;1253;126561;-64
2023/12/22 06:22:41;;;;;;;;;;;;;;;0.94;100.00;96126.41;435779;1252;125670;-65
2023/12/22 06:32:45;;;;;;;;;;;;;;;1.01;100.00;96137.27;438194;1250;125559;-64
2023/12/22 06:42:50;;;;;;;;;;;;;;;1.01;100.00;96150.83;435944;1251;126122;-63
2023/12/22 06:52:54;;;;;;;;;;;;;;;0.58;100.00;96154.91;435834;1250;125886;-64
2023/12/22 07:02:59;;;;;;;;;;;;;;;0.40;100.00;96176.23;435722;1250;125750;-64
2023/12/22 07:13:04;;;;;;;;;;;;;;;0.59;100.00;96168.56;435729;1250;126313;-65
2023/12/22 07:23:10;;;;;;;;;;;;;;;0.78;100.00;96180.85;435960;1250;125676;-65
2023/12/22 07:33:16;;;;;;;;;;;;;;;1.15;100.00;96184.02;437737;1253;126966;-65
2023/12/22 07:43:20;;;;;;;;;;;;;;;1.73;100.00;96197.45;435958;1255;125969;-65
2023/12/22 07:53:25;;;;;;;;;;;;;;;2.65;100.00;96192.86;435567;1254;126179;-69
2023/12/22 08:03:29;;;;;;;;;;;;;;;4.23;100.00;96184.65;435489;1250;168566;-65
2023/12/22 08:13:33;;;;;;;;;;;;;;;5.83;98.89;96174.00;435773;1254;125742;-64
2023/12/22 08:23:38;;;;;;;;;;;;;;;7.22;96.23;96168.16;437505;1253;125522;-64
2023/12/22 08:33:50;;;;;;;;;;;;;;;7.82;92.63;96168.44;435680;1250;125733;-65
2023/12/22 08:43:55;;;;;;;;;;;;;;;7.05;90.39;96180.52;436377;1251;124910;-65
2023/12/22 08:54:00;;;;;;;;;;;;;;;8.17;89.50;96178.25;436609;1254;125844;-66
2023/12/22 09:04:04;;;;;;;;;;;;;;;7.69;86.32;96179.02;435589;1255;125904;-65
2023/12/22 09:14:11;;;;;;;;;;;;;;;5.48;86.13;96168.48;435569;1256;125212;-66
2023/12/22 09:24:16;;;;;;;;;;;;;;;4.72;89.00;96154.95;435762;1250;126909;-65
2023/12/22 09:34:21;;;;;;;;;;;;;;;5.61;88.83;96128.40;436949;1250;125464;-64
2023/12/22 09:44:30;;;;;;;;;;;;;;;4.34;89.01;96159.36;435472;1251;124957;-64
2023/12/22 09:54:34;;;;;;;;;;;;;;;3.00;92.33;96183.30;436112;1256;125885;-65
2023/12/22 10:04:39;;;;;;;;;;;;;;;2.34;95.60;96183.21;435447;1251;126515;-65
2023/12/22 10:14:43;;;;;;;;;;;;;;;2.10;96.76;96178.69;435664;1254;126416;-64
2023/12/22 10:24:50;;;;;;;;;;;;;;;2.17;97.75;96175.33;435419;1255;127108;-64
2023/12/22 10:34:56;;;;;;;;;;;;;;;2.39;97.70;96185.41;435817;1255;125953;-64
2023/12/22 10:45:01;;;;;;;;;;;;;;;2.41;97.53;96190.25;438174;1254;126010;-64
2023/12/22 10:55:07;;;;;;;;;;;;;;;1.92;98.32;96184.81;435534;1254;126283;-64
2023/12/22 11:05:12;;;;;;;;;;;;;;;1.17;99.26;96160.79;435842;1254;126772;-65
2023/12/22 11:15:19;;;;;;;;;;;;;;;0.68;100.00;96176.84;436612;1252;125690;-64
2023/12/22 11:25:24;;;;;;;;;;;;;;;0.79;100.00;96194.09;437262;1254;125747;-64
2023/12/22 11:35:30;;;;;;;;;;;;;;;1.21;100.00;96184.27;435070;1250;125711;-64
2023/12/22 11:45:38;;;;;;;;;;;;;;;1.43;100.00;96166.09;435033;1254;127492;-64
2023/12/22 11:55:59;;;;;;;;;;;;;;;1.56;100.00;96142.44;435803;1256;126140;-64
2023/12/22 12:06:17;;;;;;;;;;;;;;;1.55;100.00;96123.92;438011;1250;127575;-64
2023/12/22 12:16:22;;;;;;;;;;;;;;;1.53;100.00;96124.27;435269;1256;126437;-65
2023/12/22 12:26:28;;;;;;;;;;;;;;;1.40;100.00;96123.23;435549;1256;125423;-64
2023/12/22 12:36:33;;;;;;;;;;;;;;;1.28;100.00;96120.08;435459;1255;125617;-64
2023/12/22 12:46:37;;;;;;;;;;;;;;;1.03;100.00;96112.08;435271;1256;125849;-64
2023/12/22 12:56:43;;;;;;;;;;;;;;;0.88;100.00;96112.09;435520;1255;127310;-66
2023/12/22 13:06:48;;;;;;;;;;;;;;;0.76;100.00;96118.19;435691;1254;125358;-65
2023/12/22 13:16:54;;;;;;;;;;;;;;;0.80;100.00;96113.42;435547;1256;127136;-64
2023/12/22 13:27:03;;;;;;;;;;;;;;;0.96;100.00;96123.17;436339;1256;125390;-65
2023/12/22 13:37:08;;;;;;;;;;;;;;;1.12;100.00;96127.96;436727;1253;125741;-65
2023/12/22 13:47:13;;;;;;;;;;;;;;;1.29;100.00;96126.52;435421;1256;126764;-66
2023/12/22 13:57:22;;;;;;;;;;;;;;;1.42;100.00;96133.80;435571;1251;125892;-67
2023/12/22 14:07:29;;;;;;;;;;;;;;;1.49;100.00;96149.77;435870;1256;126904;-65
2023/12/22 14:17:34;;;;;;;;;;;;;;;1.47;100.00;96140.13;435622;1255;125821;-65
2023/12/22 14:27:38;;;;;;;;;;;;;;;1.42;100.00;96143.08;436543;1256;125564;-65
2023/12/22 14:37:45;;;;;;;;;;;;;;;1.39;100.00;96151.42;436270;1256;125973;-63
2023/12/22 14:47:49;;;;;;;;;;;;;;;1.40;99.87;96148.03;436191;1251;125803;-65
2023/12/22 14:57:54;;;;;;;;;;;;;;;1.45;99.13;96163.35;435750;1251;125486;-64
2023/12/22 15:07:59;;;;;;;;;;;;;;;1.47;98.96;96183.66;435795;1255;126547;-65
2023/12/22 15:18:04;;;;;;;;;;;;;;;1.42;99.16;96190.86;436280;1254;125537;-65
2023/12/22 15:28:16;;;;;;;;;;;;;;;1.35;99.16;96207.58;436248;1254;126440;-64
2023/12/22 15:38:21;;;;;;;;;;;;;;;1.34;98.88;96222.83;436211;1257;125716;-64
2023/12/22 15:48:25;;;;;;;;;;;;;;;1.38;98.60;96228.84;435800;1251;125244;-65
2023/12/22 15:58:30;;;;;;;;;;;;;;;1.45;97.60;96224.52;435666;1255;126635;-65
2023/12/22 16:08:35;;;;;;;;;;;;;;;1.53;97.25;96222.88;436104;1251;125672;-65
2023/12/22 16:18:40;;;;;;;;;;;;;;;1.57;96.31;96227.70;435644;1254;125867;-64
2023/12/22 16:28:44;;;;;;;;;;;;;;;1.60;95.81;96235.02;435477;1254;126443;-61
2023/12/22 16:38:49;;;;;;;;;;;;;;;1.60;95.11;96242.85;435718;1251;125470;-68
2023/12/22 16:48:54;;;;;;;;;;;;;;;1.54;94.58;96258.98;435484;1251;125759;-67
2023/12/22 16:58:58;;;;;;;;;;;;;;;1.50;94.02;96274.62;435506;1254;126315;-62
2023/12/22 17:09:03;;;;;;;;;;;;;;;1.48;93.75;96298.98;435805;1254;125593;-62
2023/12/22 17:19:08;;;;;;;;;;;;;;;1.43;93.57;96312.27;436466;1254;125592;-62
2023/12/22 17:29:13;;;;;;;;;;;;;;;1.38;93.70;96320.95;435716;1254;125247;-62
2023/12/22 17:39:17;;;;;;;;;;;;;;;1.36;93.83;96323.36;435450;1254;126076;-62
2023/12/22 17:49:22;;;;;;;;;;;;;;;1.32;93.47;96333.62;435557;1252;126839;-62
2023/12/22 17:59:26;;;;;;;;;;;;;;;1.29;93.07;96335.61;435788;1254;126176;-61
2023/12/22 18:09:30;;;;;;;;;;;;;;;1.29;92.42;96355.94;435429;1251;125720;-63
2023/12/22 18:19:35;;;;;;;;;;;;;;;1.29;92.51;96357.27;435575;1254;125516;-64
2023/12/22 18:29:40;;;;;;;;;;;;;;;1.28;92.65;96365.17;435721;1251;126171;-63
2023/12/22 18:39:45;;;;;;;;;;;;;;;1.23;92.29;96363.28;435773;1250;125231;-64
2023/12/22 18:49:49;;;;;;;;;;;;;;;1.20;91.42;96364.05;435929;1251;125571;-64
2023/12/22 18:59:55;;;;;;;;;;;;;;;1.15;91.35;96374.23;435369;1254;126012;-62
2023/12/22 19:10:00;;;;;;;;;;;;;;;1.08;91.56;96378.89;436182;1251;126309;-62
2023/12/22 19:20:06;;;;;;;;;;;;;;;0.93;92.05;96385.33;435985;1252;125830;-64
2023/12/22 19:30:11;;;;;;;;;;;;;;;0.80;92.36;96393.61;436272;1254;126542;-63
2023/12/22 19:40:15;;;;;;;;;;;;;;;0.71;92.34;96417.86;437576;1253;125753;-61
2023/12/22 19:50:20;;;;;;;;;;;;;;;0.64;92.78;96433.70;436645;1250;127046;-62
2023/12/22 20:00:25;;;;;;;;;;;;;;;0.56;93.21;96437.90;435650;1254;125417;-63
2023/12/22 20:10:30;;;;;;;;;;;;;;;0.46;93.55;96444.48;435528;1250;125444;-62
2023/12/22 20:20:35;;;;;;;;;;;;;;;0.39;93.92;96447.33;435706;1251;125734;-63
2023/12/22 20:30:39;;;;;;;;;;;;;;;0.33;93.95;96458.78;435842;1251;125925;-66
2023/12/22 20:40:43;;;;;;;;;;;;;;;0.29;93.98;96467.37;435670;1254;127204;-62
2023/12/22 20:50:48;;;;;;;;;;;;;;;0.30;93.99;96470.56;435529;1254;125802;-62
2023/12/22 21:00:52;;;;;;;;;;;;;;;0.27;94.23;96478.16;435750;1251;126627;-63
2023/12/22 21:10:57;;;;;;;;;;;;;;;0.23;93.93;96478.27;435661;1250;125986;-65
2023/12/22 21:21:05;;;;;;;;;;;;;;;0.19;93.88;96476.84;435977;1251;125531;-65
2023/12/22 21:31:09;;;;;;;;;;;;;;;0.18;93.85;96483.66;436366;1251;125521;-64
2023/12/22 21:41:16;;;;;;;;;;;;;;;0.20;93.91;96491.26;434955;1254;125792;-64
2023/12/22 21:51:23;;;;;;;;;;;;;;;0.23;93.92;96491.16;436044;1254;125665;-64
2023/12/22 22:01:28;;;;;;;;;;;;;;;0.30;93.94;96499.98;436557;1251;125653;-63
2023/12/22 22:11:32;;;;;;;;;;;;;;;0.35;93.60;96501.55;435489;1251;125253;-64
2023/12/22 22:21:39;;;;;;;;;;;;;;;0.37;93.19;96501.16;435015;1253;126460;-63
2023/12/22 22:31:44;;;;;;;;;;;;;;;0.40;93.18;96503.37;435874;1251;126736;-64
2023/12/22 22:41:49;;;;;;;;;;;;;;;0.41;92.84;96502.27;435006;1251;126621;-64
2023/12/22 22:51:53;;;;;;;;;;;;;;;0.44;92.50;96500.22;434755;1250;126237;-65
2023/12/22 23:01:58;;;;;;;;;;;;;;;0.40;92.10;96499.27;435173;1251;125585;-65
2023/12/22 23:12:02;;;;;;;;;;;;;;;0.39;91.65;96502.23;434919;1251;125229;-65
2023/12/22 23:22:07;;;;;;;;;;;;;;;0.38;91.41;96507.15;435234;1251;125630;-63
2023/12/22 23:32:11;;;;;;;;;;;;;;;0.34;91.41;96512.59;435304;1254;125645;-64
2023/12/22 23:42:16;;;;;;;;;;;;;;;0.29;91.46;96523.98;435165;1250;125302;-63
2023/12/22 23:52:20;;;;;;;;;;;;;;;0.26;90.92;96535.70;435591;1250;125907;-64
